Time;durP1;ratioP1;P1;durP2;ratioP2;P2;SDS_P1;SDS_P2;PMS_P1;PMS_P2;Temp;Humidity;BMP_temperature;BMP_pressure;BME280_temperature;BME280_humidity;BME280_pressure;Samples;Min_cycle;Max_cycle;Signal;HPM_P1;HPM_P2
2024/01/19 00:01:52;;;;;;;14.13;9.17;;;;;;;;;;5041735;28;20230;-65
2024/01/19 00:04:19;;;;;;;13.80;7.90;;;;;;;;;;5039490;28;20429;-65
2024/01/19 00:06:47;;;;;;;15.10;8.63;;;;;;;;;;5039027;28;20203;-64
2024/01/19 00:09:14;;;;;;;19.70;10.63;;;;;;;;;;5038959;28;20215;-63
2024/01/19 00:11:42;;;;;;;15.20;9.77;;;;;;;;;;5037040;28;20231;-63
2024/01/19 00:14:09;;;;;;;16.80;10.57;;;;;;;;;;5039951;28;20248;-66
2024/01/19 00:16:41;;;;;;;11.70;8.83;;;;;;;;;;5038096;28;20204;-63
2024/01/19 00:19:09;;;;;;;15.43;9.20;;;;;;;;;;5039734;28;20218;-64
2024/01/19 00:21:46;;;;;;;16.77;9.83;;;;;;;;;;5041461;28;20238;-62
2024/01/19 00:24:14;;;;;;;16.73;9.37;;;;;;;;;;5042837;28;20769;-65
2024/01/19 00:26:43;;;;;;;14.47;9.70;;;;;;;;;;5042790;28;20214;-64
2024/01/19 00:29:10;;;;;;;15.87;9.20;;;;;;;;;;5041035;28;20215;-65
2024/01/19 00:31:38;;;;;;;14.90;9.43;;;;;;;;;;5038391;28;20219;-64
2024/01/19 00:34:05;;;;;;;15.13;10.30;;;;;;;;;;5057731;28;20208;-62
2024/01/19 00:36:32;;;;;;;14.20;10.27;;;;;;;;;;5040418;28;20603;-64
2024/01/19 00:39:00;;;;;;;21.47;10.97;;;;;;;;;;5041506;28;20758;-65
2024/01/19 00:41:27;;;;;;;18.73;11.83;;;;;;;;;;5045037;28;20693;-63
2024/01/19 00:43:54;;;;;;;15.50;9.40;;;;;;;;;;5043008;28;20206;-64
2024/01/19 00:46:22;;;;;;;21.27;12.13;;;;;;;;;;5039304;28;20203;-65
2024/01/19 00:48:49;;;;;;;18.03;11.63;;;;;;;;;;5044633;28;20207;-63
2024/01/19 00:51:17;;;;;;;20.40;10.93;;;;;;;;;;5042028;28;20225;-65
2024/01/19 00:53:45;;;;;;;17.43;10.33;;;;;;;;;;5045998;28;20208;-66
2024/01/19 00:56:13;;;;;;;15.47;10.67;;;;;;;;;;5044705;28;20774;-65
2024/01/19 00:58:42;;;;;;;18.23;10.87;;;;;;;;;;5041357;28;20207;-65
2024/01/19 01:01:09;;;;;;;18.17;10.83;;;;;;;;;;5043359;28;20224;-64
2024/01/19 01:03:37;;;;;;;23.93;12.17;;;;;;;;;;5039897;28;20203;-63
2024/01/19 01:06:04;;;;;;;27.70;13.37;;;;;;;;;;5043367;28;20261;-65
2024/01/19 01:08:37;;;;;;;18.00;11.00;;;;;;;;;;5039184;28;20208;-65
2024/01/19 01:11:05;;;;;;;35.30;15.90;;;;;;;;;;5043461;28;20231;-64
2024/01/19 01:13:33;;;;;;;47.63;17.90;;;;;;;;;;5045157;28;20203;-64
2024/01/19 01:16:01;;;;;;;16.07;9.00;;;;;;;;;;5046596;28;20676;-65
2024/01/19 01:18:28;;;;;;;22.80;11.10;;;;;;;;;;5046382;28;20211;-66
2024/01/19 01:20:57;;;;;;;20.10;10.37;;;;;;;;;;5043661;28;20230;-63
2024/01/19 01:23:25;;;;;;;15.33;9.67;;;;;;;;;;5042555;28;20240;-66
2024/01/19 01:25:52;;;;;;;16.93;10.40;;;;;;;;;;5045236;28;20333;-63
2024/01/19 01:28:20;;;;;;;16.57;9.60;;;;;;;;;;5043167;28;20202;-65
2024/01/19 01:30:47;;;;;;;14.30;8.90;;;;;;;;;;5037562;28;20772;-66
2024/01/19 01:33:14;;;;;;;16.23;9.43;;;;;;;;;;5046607;28;20205;-64
2024/01/19 01:35:42;;;;;;;19.57;11.80;;;;;;;;;;5038756;28;20206;-64
2024/01/19 01:38:09;;;;;;;22.70;11.13;;;;;;;;;;5036459;28;20229;-65
2024/01/19 01:40:37;;;;;;;18.87;9.43;;;;;;;;;;5049707;28;20996;-62
2024/01/19 01:43:07;;;;;;;15.13;10.13;;;;;;;;;;5039795;28;20229;-66
2024/01/19 01:45:34;;;;;;;18.47;11.00;;;;;;;;;;5038598;28;20225;-66
2024/01/19 01:48:02;;;;;;;15.10;9.93;;;;;;;;;;5044346;28;20207;-64
2024/01/19 01:50:31;;;;;;;17.93;10.47;;;;;;;;;;5042767;28;20385;-65
2024/01/19 01:52:58;;;;;;;17.63;10.00;;;;;;;;;;5039849;28;20200;-65
2024/01/19 01:55:26;;;;;;;17.87;10.37;;;;;;;;;;5040888;28;20223;-63
2024/01/19 01:57:53;;;;;;;17.73;9.87;;;;;;;;;;5040887;28;20604;-64
2024/01/19 02:00:21;;;;;;;19.60;9.90;;;;;;;;;;5038810;28;20208;-63
2024/01/19 02:02:48;;;;;;;15.77;9.90;;;;;;;;;;5039747;28;20234;-62
2024/01/19 02:05:16;;;;;;;16.20;10.47;;;;;;;;;;5039684;28;20657;-65
2024/01/19 02:07:44;;;;;;;18.10;11.00;;;;;;;;;;5040472;28;20205;-64
2024/01/19 02:10:11;;;;;;;18.73;11.27;;;;;;;;;;5041456;28;20214;-63
2024/01/19 02:12:40;;;;;;;19.47;12.27;;;;;;;;;;5035225;28;20206;-66
2024/01/19 02:15:18;;;;;;;15.90;10.37;;;;;;;;;;5040350;28;20246;-64
2024/01/19 02:17:46;;;;;;;17.37;10.20;;;;;;;;;;5036954;28;20218;-64
2024/01/19 02:20:13;;;;;;;14.27;9.37;;;;;;;;;;5041527;28;20210;-66
2024/01/19 02:22:42;;;;;;;16.07;9.83;;;;;;;;;;5042015;28;20220;-63
2024/01/19 02:25:12;;;;;;;16.47;9.70;;;;;;;;;;5042893;28;20209;-63
2024/01/19 02:27:39;;;;;;;16.47;10.10;;;;;;;;;;5038827;28;20203;-65
2024/01/19 02:30:07;;;;;;;17.33;10.07;;;;;;;;;;5037719;28;20549;-64
2024/01/19 02:32:35;;;;;;;18.13;10.97;;;;;;;;;;5044074;28;20225;-63
2024/01/19 02:35:03;;;;;;;19.53;10.60;;;;;;;;;;5039862;28;20270;-63
2024/01/19 02:37:31;;;;;;;21.17;10.03;;;;;;;;;;5038978;28;20199;-65
2024/01/19 02:40:00;;;;;;;17.97;10.60;;;;;;;;;;5035286;28;20561;-66
2024/01/19 02:42:28;;;;;;;19.23;10.73;;;;;;;;;;5035733;28;20250;-66
2024/01/19 02:44:55;;;;;;;15.63;10.17;;;;;;;;;;5036780;28;20194;-64
2024/01/19 02:47:22;;;;;;;17.73;10.23;;;;;;;;;;5038593;28;20215;-64
2024/01/19 02:49:49;;;;;;;17.97;9.13;;;;;;;;;;5039635;28;20199;-64
2024/01/19 02:52:17;;;;;;;16.47;10.73;;;;;;;;;;5037326;28;20219;-63
2024/01/19 02:54:44;;;;;;;16.77;10.10;;;;;;;;;;5037238;28;20213;-65
2024/01/19 02:57:11;;;;;;;18.93;11.27;;;;;;;;;;5038731;28;20210;-63
2024/01/19 02:59:39;;;;;;;16.30;10.47;;;;;;;;;;5037462;28;20590;-64
2024/01/19 03:02:08;;;;;;;14.90;9.93;;;;;;;;;;5039336;28;20292;-65
2024/01/19 03:04:35;;;;;;;21.63;11.47;;;;;;;;;;5040732;28;20195;-64
2024/01/19 03:07:02;;;;;;;18.23;10.43;;;;;;;;;;5040009;28;20544;-64
2024/01/19 03:09:29;;;;;;;22.53;14.33;;;;;;;;;;5038063;28;20567;-63
2024/01/19 03:11:57;;;;;;;23.57;14.60;;;;;;;;;;5038704;28;20230;-63
2024/01/19 03:14:24;;;;;;;23.83;13.17;;;;;;;;;;5039495;28;20276;-66
2024/01/19 03:16:52;;;;;;;21.77;14.17;;;;;;;;;;5038274;28;20213;-64
2024/01/19 03:19:19;;;;;;;23.70;16.30;;;;;;;;;;5040738;28;20199;-63
2024/01/19 03:21:46;;;;;;;21.60;14.13;;;;;;;;;;5038272;28;20230;-65
2024/01/19 03:24:14;;;;;;;19.23;12.60;;;;;;;;;;5035507;28;20219;-66
2024/01/19 03:26:44;;;;;;;17.97;11.10;;;;;;;;;;5039134;28;20199;-65
2024/01/19 03:29:11;;;;;;;22.60;11.43;;;;;;;;;;5038021;28;20626;-64
2024/01/19 03:31:39;;;;;;;19.57;11.37;;;;;;;;;;5039579;28;20623;-65
2024/01/19 03:34:06;;;;;;;19.10;11.30;;;;;;;;;;5039471;28;20202;-63
2024/01/19 03:36:33;;;;;;;20.10;11.27;;;;;;;;;;5040223;28;20202;-63
2024/01/19 03:39:00;;;;;;;14.57;9.57;;;;;;;;;;5039057;28;20210;-66
2024/01/19 03:41:28;;;;;;;21.83;11.27;;;;;;;;;;5037580;28;20238;-64
2024/01/19 03:43:55;;;;;;;19.47;11.00;;;;;;;;;;5039694;28;20212;-65
2024/01/19 03:46:23;;;;;;;17.73;10.80;;;;;;;;;;5037437;28;20205;-63
2024/01/19 03:48:50;;;;;;;16.33;10.57;;;;;;;;;;5040025;28;20184;-63
2024/01/19 03:51:18;;;;;;;18.43;11.97;;;;;;;;;;5037462;28;20596;-62
2024/01/19 03:53:45;;;;;;;18.77;11.43;;;;;;;;;;5036794;28;20201;-62
2024/01/19 03:56:12;;;;;;;16.07;9.57;;;;;;;;;;5041509;28;20678;-63
2024/01/19 03:58:40;;;;;;;18.53;10.33;;;;;;;;;;5038944;28;20669;-66
2024/01/19 04:01:07;;;;;;;13.03;9.20;;;;;;;;;;5042929;28;20250;-66
2024/01/19 04:03:35;;;;;;;15.57;9.27;;;;;;;;;;5044587;28;20895;-65
2024/01/19 04:06:02;;;;;;;15.43;9.40;;;;;;;;;;5045098;28;20662;-63
2024/01/19 04:08:30;;;;;;;14.47;9.07;;;;;;;;;;5043769;28;20680;-65
2024/01/19 04:10:57;;;;;;;17.20;8.90;;;;;;;;;;5042190;28;20285;-63
2024/01/19 04:13:24;;;;;;;15.20;9.33;;;;;;;;;;5042992;28;20207;-63
2024/01/19 04:15:52;;;;;;;15.27;10.07;;;;;;;;;;5044177;28;20267;-66
2024/01/19 04:18:19;;;;;;;15.80;9.43;;;;;;;;;;5045353;28;20669;-64
2024/01/19 04:20:47;;;;;;;18.00;9.70;;;;;;;;;;5043600;28;20234;-66
2024/01/19 04:23:16;;;;;;;15.00;9.63;;;;;;;;;;5043275;28;20234;-64
2024/01/19 04:25:43;;;;;;;14.57;9.73;;;;;;;;;;5043428;28;20219;-65
2024/01/19 04:28:10;;;;;;;16.67;9.83;;;;;;;;;;5044828;28;20208;-63
2024/01/19 04:30:38;;;;;;;20.80;10.97;;;;;;;;;;5046189;28;20219;-63
2024/01/19 04:33:05;;;;;;;18.50;10.17;;;;;;;;;;5043781;28;20207;-66
2024/01/19 04:35:32;;;;;;;18.97;11.13;;;;;;;;;;5044083;28;20211;-63
2024/01/19 04:38:00;;;;;;;15.80;9.77;;;;;;;;;;5041105;28;20245;-64
2024/01/19 04:40:27;;;;;;;18.97;10.23;;;;;;;;;;5038533;28;20567;-64
2024/01/19 04:42:55;;;;;;;19.03;10.40;;;;;;;;;;5038299;28;20291;-64
2024/01/19 04:45:22;;;;;;;17.93;10.47;;;;;;;;;;5056440;28;20244;-62
2024/01/19 04:47:49;;;;;;;18.83;11.50;;;;;;;;;;5068000;28;20183;-63
2024/01/19 04:50:17;;;;;;;16.50;10.03;;;;;;;;;;5043850;28;20209;-66
2024/01/19 04:52:44;;;;;;;16.17;11.53;;;;;;;;;;5046200;28;20207;-64
2024/01/19 04:55:11;;;;;;;19.23;12.27;;;;;;;;;;5044095;28;20253;-65
2024/01/19 04:57:39;;;;;;;19.83;11.80;;;;;;;;;;5033933;28;20721;-65
2024/01/19 05:00:06;;;;;;;21.70;11.87;;;;;;;;;;5042642;28;20686;-63
2024/01/19 05:02:34;;;;;;;25.47;12.97;;;;;;;;;;5037455;28;20238;-64
2024/01/19 05:05:01;;;;;;;17.73;10.90;;;;;;;;;;5039172;28;20206;-63
2024/01/19 05:07:29;;;;;;;17.60;11.27;;;;;;;;;;5036206;28;20597;-66
2024/01/19 05:09:59;;;;;;;15.87;10.97;;;;;;;;;;5040849;28;20210;-65
2024/01/19 05:12:27;;;;;;;19.73;10.73;;;;;;;;;;5041499;28;20235;-64
2024/01/19 05:14:54;;;;;;;17.73;11.00;;;;;;;;;;5043080;28;20204;-64
2024/01/19 05:17:22;;;;;;;21.90;11.43;;;;;;;;;;5043537;28;20820;-66
2024/01/19 05:19:49;;;;;;;15.90;10.57;;;;;;;;;;5036506;28;20217;-65
2024/01/19 05:22:17;;;;;;;18.97;13.10;;;;;;;;;;5033124;28;20693;-63
2024/01/19 05:24:45;;;;;;;21.10;11.77;;;;;;;;;;5030973;28;20224;-65
2024/01/19 05:27:14;;;;;;;17.20;10.90;;;;;;;;;;5036995;28;20207;-63
2024/01/19 05:29:43;;;;;;;18.47;10.87;;;;;;;;;;5036664;28;20208;-64
2024/01/19 05:32:11;;;;;;;19.50;11.23;;;;;;;;;;5037260;28;20308;-63
2024/01/19 05:34:38;;;;;;;15.23;10.00;;;;;;;;;;5035996;28;20208;-66
2024/01/19 05:37:05;;;;;;;15.67;10.37;;;;;;;;;;5032107;28;20653;-66
2024/01/19 05:39:33;;;;;;;13.60;9.70;;;;;;;;;;5043860;28;20211;-63
2024/01/19 05:42:00;;;;;;;18.90;10.33;;;;;;;;;;5038066;28;20235;-66
2024/01/19 05:44:27;;;;;;;18.27;10.00;;;;;;;;;;5040173;28;20292;-64
2024/01/19 05:46:55;;;;;;;18.27;10.53;;;;;;;;;;5038630;28;20724;-62
2024/01/19 05:49:23;;;;;;;16.83;10.83;;;;;;;;;;5040573;28;20211;-65
2024/01/19 05:51:51;;;;;;;15.70;11.17;;;;;;;;;;5427404;22;20272;-79
2024/01/19 05:54:18;;;;;;;22.10;13.30;;;;;;;;;;4990894;28;20604;-79
2024/01/19 05:56:46;;;;;;;19.30;11.77;;;;;;;;;;5029682;28;20200;-83
2024/01/19 05:59:13;;;;;;;16.00;11.40;;;;;;;;;;5045944;28;20264;-83
2024/01/19 06:01:42;;;;;;;16.77;10.40;;;;;;;;;;5028646;28;20689;-81
2024/01/19 06:04:09;;;;;;;17.27;10.80;;;;;;;;;;5021670;28;20235;-76
2024/01/19 06:06:36;;;;;;;18.90;11.00;;;;;;;;;;5018843;28;20675;-80
2024/01/19 06:09:04;;;;;;;18.03;11.47;;;;;;;;;;5007832;28;20649;-78
2024/01/19 06:11:31;;;;;;;21.57;13.20;;;;;;;;;;5021802;28;20204;-79
2024/01/19 06:14:02;;;;;;;18.30;11.47;;;;;;;;;;5019795;28;20232;-82
2024/01/19 06:16:32;;;;;;;23.07;14.77;;;;;;;;;;5026324;28;20858;-79
2024/01/19 06:19:00;;;;;;;21.33;13.03;;;;;;;;;;5023848;28;20209;-76
2024/01/19 06:21:27;;;;;;;22.10;12.57;;;;;;;;;;5004853;28;20210;-79
2024/01/19 06:23:54;;;;;;;19.37;11.10;;;;;;;;;;5027658;28;20290;-80
2024/01/19 06:26:22;;;;;;;20.20;11.53;;;;;;;;;;5007559;28;20246;-80
2024/01/19 06:28:50;;;;;;;21.17;11.87;;;;;;;;;;5000451;28;20714;-77
2024/01/19 06:31:18;;;;;;;18.87;12.60;;;;;;;;;;5022316;28;20727;-79
2024/01/19 06:33:46;;;;;;;18.03;11.80;;;;;;;;;;5027459;28;20230;-77
2024/01/19 06:36:14;;;;;;;18.17;12.00;;;;;;;;;;5021018;28;21215;-80
2024/01/19 06:38:41;;;;;;;17.23;11.93;;;;;;;;;;5021070;28;20272;-82
2024/01/19 06:41:09;;;;;;;19.40;11.70;;;;;;;;;;5007909;28;20230;-78
2024/01/19 06:43:37;;;;;;;20.77;12.23;;;;;;;;;;5020695;28;20658;-79
2024/01/19 06:46:06;;;;;;;19.43;12.50;;;;;;;;;;5026430;28;20776;-78
2024/01/19 06:48:33;;;;;;;19.93;12.47;;;;;;;;;;5012439;28;20200;-82
2024/01/19 06:51:02;;;;;;;18.67;12.40;;;;;;;;;;5020897;28;20769;-81
2024/01/19 06:53:30;;;;;;;21.17;12.40;;;;;;;;;;5022213;28;20255;-82
2024/01/19 06:55:58;;;;;;;19.87;12.10;;;;;;;;;;5029383;28;20225;-82
2024/01/19 06:58:36;;;;;;;21.30;12.53;;;;;;;;;;5011368;28;20204;-80
2024/01/19 07:01:06;;;;;;;18.90;12.60;;;;;;;;;;5023688;28;20207;-81
2024/01/19 07:03:38;;;;;;;25.27;13.93;;;;;;;;;;5035944;28;20239;-78
2024/01/19 07:06:05;;;;;;;21.90;13.60;;;;;;;;;;5051123;28;20194;-77
2024/01/19 07:08:33;;;;;;;23.20;14.67;;;;;;;;;;5042023;28;20204;-82
2024/01/19 07:11:01;;;;;;;24.37;14.97;;;;;;;;;;5035829;28;20203;-78
2024/01/19 07:13:28;;;;;;;21.80;14.73;;;;;;;;;;5030388;28;20236;-80
2024/01/19 07:15:56;;;;;;;20.67;13.37;;;;;;;;;;5032655;28;20215;-78
2024/01/19 07:18:25;;;;;;;16.67;11.73;;;;;;;;;;5032352;28;20199;-82
2024/01/19 07:20:57;;;;;;;18.60;11.77;;;;;;;;;;5029425;28;20688;-82
2024/01/19 07:23:24;;;;;;;16.43;11.13;;;;;;;;;;5020126;28;20291;-80
2024/01/19 07:25:53;;;;;;;22.07;11.17;;;;;;;;;;5030971;28;20212;-81
2024/01/19 07:28:20;;;;;;;17.63;10.77;;;;;;;;;;5026992;28;20253;-83
2024/01/19 07:30:50;;;;;;;14.13;9.50;;;;;;;;;;5033150;28;20212;-83
2024/01/19 07:33:21;;;;;;;16.17;10.13;;;;;;;;;;5032876;28;20224;-80
2024/01/19 07:35:59;;;;;;;15.50;10.30;;;;;;;;;;5018494;28;20207;-81
2024/01/19 07:38:28;;;;;;;17.40;10.27;;;;;;;;;;5033143;28;20230;-82
2024/01/19 07:40:56;;;;;;;15.67;9.93;;;;;;;;;;5043014;28;20213;-79
2024/01/19 07:43:27;;;;;;;19.70;11.20;;;;;;;;;;5037482;28;20717;-82
2024/01/19 07:45:55;;;;;;;14.60;10.63;;;;;;;;;;5035447;28;20257;-85
2024/01/19 07:48:23;;;;;;;16.47;10.50;;;;;;;;;;5017161;28;20208;-79
2024/01/19 07:50:51;;;;;;;20.43;10.73;;;;;;;;;;5010358;28;20757;-80
2024/01/19 07:53:19;;;;;;;21.67;12.07;;;;;;;;;;5028657;28;20244;-81
2024/01/19 07:55:46;;;;;;;19.40;11.33;;;;;;;;;;5022660;28;20221;-78
2024/01/19 07:58:13;;;;;;;17.00;10.70;;;;;;;;;;5028359;28;20220;-77
2024/01/19 08:00:41;;;;;;;19.90;11.57;;;;;;;;;;5021698;28;20212;-80
2024/01/19 08:03:08;;;;;;;18.43;11.40;;;;;;;;;;5021103;28;20232;-82
2024/01/19 08:05:36;;;;;;;19.33;12.80;;;;;;;;;;5025579;28;20295;-82
2024/01/19 08:08:04;;;;;;;25.57;14.23;;;;;;;;;;5002784;28;20709;-81
2024/01/19 08:10:32;;;;;;;21.00;13.40;;;;;;;;;;5008048;28;20208;-83
2024/01/19 08:12:59;;;;;;;23.90;14.47;;;;;;;;;;5024447;28;20238;-80
2024/01/19 08:15:26;;;;;;;22.43;14.07;;;;;;;;;;5001534;28;20702;-83
2024/01/19 08:17:54;;;;;;;22.87;14.10;;;;;;;;;;5024842;28;20290;-83
2024/01/19 08:20:22;;;;;;;18.70;12.67;;;;;;;;;;5026441;28;20769;-80
2024/01/19 08:22:49;;;;;;;20.00;12.33;;;;;;;;;;5029453;28;20308;-79
2024/01/19 08:25:17;;;;;;;23.80;12.00;;;;;;;;;;5007405;28;20214;-80
2024/01/19 08:27:44;;;;;;;22.77;12.43;;;;;;;;;;5025825;28;20363;-81
2024/01/19 08:30:13;;;;;;;22.17;12.93;;;;;;;;;;5032901;28;20217;-79
2024/01/19 08:32:42;;;;;;;19.00;12.20;;;;;;;;;;5013857;28;20228;-79
2024/01/19 08:35:10;;;;;;;17.67;11.63;;;;;;;;;;5026145;28;21185;-79
2024/01/19 08:37:39;;;;;;;19.57;11.57;;;;;;;;;;5029814;28;20646;-80
2024/01/19 08:40:07;;;;;;;23.00;13.07;;;;;;;;;;5009250;28;20258;-80
2024/01/19 08:42:34;;;;;;;19.40;12.40;;;;;;;;;;5023371;28;20585;-78
2024/01/19 08:45:02;;;;;;;22.10;13.70;;;;;;;;;;5032043;28;20256;-80
2024/01/19 08:47:33;;;;;;;18.13;12.60;;;;;;;;;;5012237;28;20237;-82
2024/01/19 08:50:05;;;;;;;19.87;12.43;;;;;;;;;;5029604;28;20288;-81
2024/01/19 08:52:32;;;;;;;16.83;11.30;;;;;;;;;;5028738;28;20698;-81
2024/01/19 08:55:02;;;;;;;20.87;13.90;;;;;;;;;;5042145;28;20309;-81
2024/01/19 08:57:33;;;;;;;17.93;12.60;;;;;;;;;;5009298;28;20206;-82
2024/01/19 09:00:01;;;;;;;15.97;12.73;;;;;;;;;;5012218;28;20221;-78
2024/01/19 09:02:28;;;;;;;21.20;13.27;;;;;;;;;;5023665;28;20244;-80
2024/01/19 09:04:56;;;;;;;18.37;12.33;;;;;;;;;;5027736;28;20269;-80
2024/01/19 09:07:23;;;;;;;20.83;11.77;;;;;;;;;;5018590;28;20210;-81
2024/01/19 09:09:51;;;;;;;19.10;12.83;;;;;;;;;;5033394;28;20244;-79
2024/01/19 09:12:18;;;;;;;17.50;11.43;;;;;;;;;;5017137;28;20226;-79
2024/01/19 09:14:46;;;;;;;14.40;10.97;;;;;;;;;;5022118;28;20206;-79
2024/01/19 09:17:14;;;;;;;20.53;12.50;;;;;;;;;;5027800;28;20304;-77
2024/01/19 09:19:41;;;;;;;17.93;12.03;;;;;;;;;;5027808;28;20546;-78
2024/01/19 09:22:08;;;;;;;14.37;11.03;;;;;;;;;;5024215;28;20248;-81
2024/01/19 09:24:36;;;;;;;19.77;12.47;;;;;;;;;;5022075;28;20237;-79
2024/01/19 09:27:04;;;;;;;17.40;10.73;;;;;;;;;;5030941;28;20215;-81
2024/01/19 09:29:32;;;;;;;18.07;12.00;;;;;;;;;;5007865;28;20680;-81
2024/01/19 09:32:00;;;;;;;17.13;12.40;;;;;;;;;;5010730;28;20209;-85
2024/01/19 09:34:28;;;;;;;19.57;11.63;;;;;;;;;;5013825;28;20207;-80
2024/01/19 09:36:55;;;;;;;17.20;10.47;;;;;;;;;;5028345;28;20582;-79
2024/01/19 09:39:23;;;;;;;19.47;11.33;;;;;;;;;;5026561;28;20660;-78
2024/01/19 09:41:52;;;;;;;14.93;10.70;;;;;;;;;;5021583;28;20210;-85
2024/01/19 09:44:21;;;;;;;16.23;10.13;;;;;;;;;;5028823;28;20227;-82
2024/01/19 09:46:51;;;;;;;17.03;11.73;;;;;;;;;;5025461;28;20207;-81
2024/01/19 09:49:29;;;;;;;15.23;10.30;;;;;;;;;;5011458;28;20226;-79
2024/01/19 09:52:10;;;;;;;17.17;10.37;;;;;;;;;;5032066;28;20226;-80
2024/01/19 09:54:40;;;;;;;14.57;10.40;;;;;;;;;;5026522;28;20680;-78
2024/01/19 09:57:08;;;;;;;15.63;10.13;;;;;;;;;;5027520;28;20297;-81
2024/01/19 09:59:36;;;;;;;15.97;10.53;;;;;;;;;;5030976;28;20688;-81
2024/01/19 10:02:04;;;;;;;15.93;10.47;;;;;;;;;;5032326;28;20238;-81
2024/01/19 10:04:32;;;;;;;14.53;10.77;;;;;;;;;;5031211;28;20250;-79
2024/01/19 10:07:01;;;;;;;21.33;14.07;;;;;;;;;;5034926;28;20227;-89
2024/01/19 10:09:30;;;;;;;21.70;12.77;;;;;;;;;;5029262;28;20232;-84
2024/01/19 10:11:59;;;;;;;15.10;10.47;;;;;;;;;;5036831;28;20198;-83
2024/01/19 10:14:26;;;;;;;16.43;10.77;;;;;;;;;;5028537;28;20330;-77
2024/01/19 10:16:54;;;;;;;14.13;10.20;;;;;;;;;;5023851;28;20587;-83
2024/01/19 10:19:21;;;;;;;12.93;9.23;;;;;;;;;;5036417;28;20272;-82
2024/01/19 10:21:52;;;;;;;12.67;9.33;;;;;;;;;;5028533;28;20207;-81
2024/01/19 10:24:19;;;;;;;11.10;8.27;;;;;;;;;;5025123;28;20218;-84
2024/01/19 10:26:56;;;;;;;13.03;9.87;;;;;;;;;;5026667;28;20229;-80
2024/01/19 10:29:24;;;;;;;8.67;7.17;;;;;;;;;;5027248;28;20230;-81
2024/01/19 10:31:55;;;;;;;9.30;7.10;;;;;;;;;;5010438;28;20203;-80
2024/01/19 10:34:24;;;;;;;10.80;7.53;;;;;;;;;;5029428;28;20210;-81
2024/01/19 10:36:52;;;;;;;11.10;6.43;;;;;;;;;;5029134;28;20289;-80
2024/01/19 10:39:19;;;;;;;9.77;6.90;;;;;;;;;;5007683;28;20677;-81
2024/01/19 10:41:47;;;;;;;8.13;6.73;;;;;;;;;;5028852;28;20309;-81
2024/01/19 10:44:16;;;;;;;9.63;7.13;;;;;;;;;;5009870;28;20223;-77
2024/01/19 10:46:44;;;;;;;9.13;6.93;;;;;;;;;;5026520;28;20199;-83
2024/01/19 10:49:17;;;;;;;9.83;7.40;;;;;;;;;;5032042;28;20206;-81
2024/01/19 10:51:49;;;;;;;10.90;7.67;;;;;;;;;;5024546;28;20198;-78
2024/01/19 10:54:24;;;;;;;10.40;7.23;;;;;;;;;;5023460;28;20210;-80
2024/01/19 10:57:02;;;;;;;8.90;7.30;;;;;;;;;;5030916;28;20206;-81
2024/01/19 10:59:30;;;;;;;8.20;7.37;;;;;;;;;;5033687;28;20217;-79
2024/01/19 11:02:03;;;;;;;8.33;7.17;;;;;;;;;;5025140;28;20214;-84
2024/01/19 11:04:31;;;;;;;6.37;4.97;;;;;;;;;;5026841;28;20230;-83
2024/01/19 11:07:00;;;;;;;5.97;4.83;;;;;;;;;;5005134;28;20602;-81
2024/01/19 11:09:29;;;;;;;7.10;5.57;;;;;;;;;;5028627;28;20642;-78
2024/01/19 11:11:58;;;;;;;6.47;5.10;;;;;;;;;;5017130;28;20215;-80
2024/01/19 11:14:27;;;;;;;6.13;5.20;;;;;;;;;;5020198;28;23398;-81
2024/01/19 11:16:56;;;;;;;6.63;5.17;;;;;;;;;;5008137;28;20208;-79
2024/01/19 11:19:24;;;;;;;6.70;5.70;;;;;;;;;;5000907;28;20301;-81
2024/01/19 11:21:51;;;;;;;7.00;5.97;;;;;;;;;;5024904;28;20214;-80
2024/01/19 11:24:20;;;;;;;6.83;4.83;;;;;;;;;;5002510;28;20235;-81
2024/01/19 11:27:17;;;;;;;5.07;4.57;;;;;;;;;;5005654;28;20199;-81
2024/01/19 11:29:46;;;;;;;10.50;6.90;;;;;;;;;;5000582;28;21284;-83
2024/01/19 11:32:14;;;;;;;10.50;7.20;;;;;;;;;;5006139;28;20711;-82
2024/01/19 11:34:41;;;;;;;16.10;10.07;;;;;;;;;;5027104;28;20214;-84
2024/01/19 11:37:09;;;;;;;7.50;6.43;;;;;;;;;;5025898;28;20700;-82
2024/01/19 11:39:38;;;;;;;10.57;6.77;;;;;;;;;;5021796;28;20210;-81
2024/01/19 11:42:07;;;;;;;7.43;6.37;;;;;;;;;;5025626;28;21196;-77
2024/01/19 11:44:45;;;;;;;7.47;5.73;;;;;;;;;;5020285;28;20914;-78
2024/01/19 11:47:36;;;;;;;5.30;4.80;;;;;;;;;;5023373;28;20656;-81
2024/01/19 11:50:04;;;;;;;8.27;4.60;;;;;;;;;;5007510;28;20199;-80
2024/01/19 11:52:35;;;;;;;6.30;4.73;;;;;;;;;;5007489;28;20246;-81
2024/01/19 11:55:22;;;;;;;8.57;5.03;;;;;;;;;;5022912;28;20313;-80
2024/01/19 11:57:49;;;;;;;7.97;6.03;;;;;;;;;;5004683;28;20210;-84
2024/01/19 12:00:19;;;;;;;5.83;5.23;;;;;;;;;;5032260;28;20214;-81
2024/01/19 12:02:48;;;;;;;6.77;5.73;;;;;;;;;;5009203;28;20253;-82
2024/01/19 12:05:20;;;;;;;7.53;5.43;;;;;;;;;;5022471;28;20225;-83
2024/01/19 12:07:48;;;;;;;7.17;5.27;;;;;;;;;;5014724;28;20206;-84
2024/01/19 12:10:16;;;;;;;4.90;4.40;;;;;;;;;;5032510;28;20209;-82
2024/01/19 12:12:43;;;;;;;5.77;4.07;;;;;;;;;;5010585;28;20234;-82
2024/01/19 12:15:11;;;;;;;5.70;4.30;;;;;;;;;;5026150;28;20206;-82
2024/01/19 12:17:43;;;;;;;5.80;4.53;;;;;;;;;;5027442;28;20691;-80
2024/01/19 12:20:15;;;;;;;6.40;4.20;;;;;;;;;;5028809;28;20206;-78
2024/01/19 12:22:44;;;;;;;4.17;3.60;;;;;;;;;;5031514;28;20226;-83
2024/01/19 12:25:13;;;;;;;4.17;3.40;;;;;;;;;;5040456;28;20712;-82
2024/01/19 12:27:40;;;;;;;4.20;3.00;;;;;;;;;;5037030;28;20639;-82
2024/01/19 12:30:19;;;;;;;4.03;3.60;;;;;;;;;;5021490;28;20247;-80
2024/01/19 12:32:48;;;;;;;6.03;4.20;;;;;;;;;;5029746;28;20317;-79
2024/01/19 12:35:20;;;;;;;4.87;3.90;;;;;;;;;;5027310;28;20665;-79
2024/01/19 12:37:47;;;;;;;4.87;3.37;;;;;;;;;;5026352;28;20206;-78
2024/01/19 12:40:19;;;;;;;3.63;2.50;;;;;;;;;;5029723;28;20203;-81
2024/01/19 12:42:54;;;;;;;3.87;2.50;;;;;;;;;;5013632;28;20309;-84
2024/01/19 12:45:26;;;;;;;3.27;2.20;;;;;;;;;;5020275;28;20226;-82
2024/01/19 12:48:00;;;;;;;4.03;2.73;;;;;;;;;;5028862;28;20257;-83
2024/01/19 12:50:29;;;;;;;2.70;2.50;;;;;;;;;;5039747;28;20645;-81
2024/01/19 12:52:57;;;;;;;3.37;2.47;;;;;;;;;;5049390;28;20642;-82
2024/01/19 12:55:29;;;;;;;3.17;2.90;;;;;;;;;;5026733;28;20675;-80
2024/01/19 12:58:03;;;;;;;5.93;2.90;;;;;;;;;;5023316;28;20212;-81
2024/01/19 13:00:31;;;;;;;3.03;2.73;;;;;;;;;;5024849;28;20841;-81
2024/01/19 13:02:59;;;;;;;3.63;2.83;;;;;;;;;;5019313;28;20234;-83
2024/01/19 13:05:27;;;;;;;2.90;2.60;;;;;;;;;;5008413;28;20226;-84
2024/01/19 13:08:01;;;;;;;4.23;2.97;;;;;;;;;;5031816;28;20209;-81
2024/01/19 13:10:33;;;;;;;3.47;3.17;;;;;;;;;;5043141;28;20195;-78
2024/01/19 13:13:05;;;;;;;3.80;2.97;;;;;;;;;;5048808;28;20218;-80
2024/01/19 13:15:33;;;;;;;3.30;3.00;;;;;;;;;;5035593;28;20212;-81
2024/01/19 13:18:10;;;;;;;3.40;3.10;;;;;;;;;;5033013;28;20211;-79
2024/01/19 13:20:39;;;;;;;2.90;2.70;;;;;;;;;;5030794;28;20214;-78
2024/01/19 13:23:08;;;;;;;5.77;2.80;;;;;;;;;;5026405;28;20258;-82
2024/01/19 13:25:36;;;;;;;2.80;2.60;;;;;;;;;;5007199;28;20608;-80
2024/01/19 13:28:04;;;;;;;3.50;2.63;;;;;;;;;;5026602;28;20692;-79
2024/01/19 13:30:32;;;;;;;3.60;2.87;;;;;;;;;;5005665;28;20230;-79
2024/01/19 13:33:02;;;;;;;3.17;2.90;;;;;;;;;;5028536;28;20229;-82
2024/01/19 13:35:30;;;;;;;3.67;3.37;;;;;;;;;;5023203;28;20211;-80
2024/01/19 13:37:58;;;;;;;5.77;3.10;;;;;;;;;;5031107;28;20212;-76
2024/01/19 13:40:26;;;;;;;3.70;3.40;;;;;;;;;;5027058;28;20298;-80
2024/01/19 13:42:54;;;;;;;3.40;3.10;;;;;;;;;;5023965;28;20321;-79
2024/01/19 13:45:21;;;;;;;3.40;3.10;;;;;;;;;;5024654;28;20860;-78
2024/01/19 13:47:49;;;;;;;4.33;3.30;;;;;;;;;;5025046;28;20673;-78
2024/01/19 13:50:16;;;;;;;3.37;3.07;;;;;;;;;;5029188;28;20217;-78
2024/01/19 13:52:43;;;;;;;3.73;3.43;;;;;;;;;;5025536;28;20269;-78
2024/01/19 13:55:13;;;;;;;4.83;3.00;;;;;;;;;;5005351;28;20276;-78
2024/01/19 13:57:41;;;;;;;3.47;3.17;;;;;;;;;;5030119;28;21750;-81
2024/01/19 14:00:08;;;;;;;4.17;3.50;;;;;;;;;;5029477;28;20210;-81
2024/01/19 14:02:35;;;;;;;3.67;3.37;;;;;;;;;;5030948;28;20230;-82
2024/01/19 14:05:04;;;;;;;5.00;3.13;;;;;;;;;;5021889;28;20226;-81
2024/01/19 14:07:32;;;;;;;3.87;3.47;;;;;;;;;;5003421;28;20280;-79
2024/01/19 14:10:00;;;;;;;3.40;3.10;;;;;;;;;;5023554;28;20572;-81
2024/01/19 14:12:28;;;;;;;4.80;3.80;;;;;;;;;;5024467;28;20232;-79
2024/01/19 14:14:55;;;;;;;4.23;3.83;;;;;;;;;;5008823;28;20721;-83
2024/01/19 14:17:23;;;;;;;4.83;3.70;;;;;;;;;;5026155;28;20207;-82
2024/01/19 14:19:51;;;;;;;5.17;3.53;;;;;;;;;;5012777;28;20764;-81
2024/01/19 14:22:18;;;;;;;4.63;3.80;;;;;;;;;;5008097;28;20334;-80
2024/01/19 14:24:46;;;;;;;4.00;3.47;;;;;;;;;;5015566;28;20228;-83
2024/01/19 14:27:13;;;;;;;5.33;3.83;;;;;;;;;;5034255;28;20207;-79
2024/01/19 14:29:40;;;;;;;4.53;3.63;;;;;;;;;;5030675;28;20210;-81
2024/01/19 14:32:07;;;;;;;4.33;3.77;;;;;;;;;;5010957;28;20637;-83
2024/01/19 14:34:35;;;;;;;4.73;3.77;;;;;;;;;;5029041;28;20604;-78